sensor_id;sensor_type;location;lat;lon;timestamp;P1;durP1;ratioP1;P2;durP2;ratioP2
21626;SDS011;10975;47.872;12.972;2024-02-28T00:00:26;38.20;;;24.50;;
21626;SDS011;10975;47.872;12.972;2024-02-28T00:02:53;32.10;;;23.15;;
21626;SDS011;10975;47.872;12.972;2024-02-28T00:05:19;30.77;;;23.15;;
21626;SDS011;10975;47.872;12.972;2024-02-28T00:07:46;41.22;;;25.75;;
21626;SDS011;10975;47.872;12.972;2024-02-28T00:10:13;36.95;;;24.77;;
21626;SDS011;10975;47.872;12.972;2024-02-28T00:12:40;29.48;;;21.75;;
21626;SDS011;10975;47.872;12.972;2024-02-28T00:15:07;39.05;;;25.33;;
21626;SDS011;10975;47.872;12.972;2024-02-28T00:17:40;36.10;;;24.88;;
21626;SDS011;10975;47.872;12.972;2024-02-28T00:20:08;30.83;;;22.58;;
21626;SDS011;10975;47.872;12.972;2024-02-28T00:22:36;39.10;;;24.15;;
21626;SDS011;10975;47.872;12.972;2024-02-28T00:25:05;37.00;;;24.33;;
21626;SDS011;10975;47.872;12.972;2024-02-28T00:27:34;42.10;;;26.20;;
21626;SDS011;10975;47.872;12.972;2024-02-28T00:30:01;37.03;;;25.88;;
21626;SDS011;10975;47.872;12.972;2024-02-28T00:32:32;33.08;;;23.67;;
21626;SDS011;10975;47.872;12.972;2024-02-28T00:34:59;39.58;;;25.52;;
21626;SDS011;10975;47.872;12.972;2024-02-28T00:37:26;36.00;;;25.23;;
21626;SDS011;10975;47.872;12.972;2024-02-28T00:39:53;36.30;;;23.45;;
21626;SDS011;10975;47.872;12.972;2024-02-28T00:42:21;40.90;;;25.13;;
21626;SDS011;10975;47.872;12.972;2024-02-28T00:44:48;35.75;;;22.85;;
21626;SDS011;10975;47.872;12.972;2024-02-28T00:47:14;36.65;;;25.50;;
21626;SDS011;10975;47.872;12.972;2024-02-28T00:49:41;40.35;;;26.88;;
21626;SDS011;10975;47.872;12.972;2024-02-28T00:52:08;45.05;;;25.85;;
21626;SDS011;10975;47.872;12.972;2024-02-28T00:54:35;39.85;;;25.30;;
21626;SDS011;10975;47.872;12.972;2024-02-28T00:57:02;39.50;;;25.55;;
21626;SDS011;10975;47.872;12.972;2024-02-28T00:59:29;40.10;;;25.77;;
21626;SDS011;10975;47.872;12.972;2024-02-28T01:01:56;37.88;;;24.95;;
21626;SDS011;10975;47.872;12.972;2024-02-28T01:04:24;43.22;;;27.25;;
21626;SDS011;10975;47.872;12.972;2024-02-28T01:06:51;39.47;;;26.05;;
21626;SDS011;10975;47.872;12.972;2024-02-28T01:09:18;38.03;;;24.88;;
21626;SDS011;10975;47.872;12.972;2024-02-28T01:11:45;41.67;;;26.33;;
21626;SDS011;10975;47.872;12.972;2024-02-28T01:14:12;39.47;;;25.40;;
21626;SDS011;10975;47.872;12.972;2024-02-28T01:16:39;38.67;;;25.85;;
21626;SDS011;10975;47.872;12.972;2024-02-28T01:19:05;40.72;;;26.35;;
21626;SDS011;10975;47.872;12.972;2024-02-28T01:21:32;35.63;;;24.20;;
21626;SDS011;10975;47.872;12.972;2024-02-28T01:23:59;35.45;;;23.77;;
21626;SDS011;10975;47.872;12.972;2024-02-28T01:26:26;33.00;;;21.33;;
21626;SDS011;10975;47.872;12.972;2024-02-28T01:28:53;38.40;;;24.02;;
21626;SDS011;10975;47.872;12.972;2024-02-28T01:31:19;36.33;;;25.52;;
21626;SDS011;10975;47.872;12.972;2024-02-28T01:33:46;44.50;;;30.23;;
21626;SDS011;10975;47.872;12.972;2024-02-28T01:36:14;49.22;;;31.85;;
21626;SDS011;10975;47.872;12.972;2024-02-28T01:38:41;41.40;;;26.38;;
21626;SDS011;10975;47.872;12.972;2024-02-28T01:41:07;39.20;;;26.25;;
21626;SDS011;10975;47.872;12.972;2024-02-28T01:43:34;37.70;;;26.90;;
21626;SDS011;10975;47.872;12.972;2024-02-28T01:46:02;43.22;;;28.13;;
21626;SDS011;10975;47.872;12.972;2024-02-28T01:48:31;42.30;;;27.27;;
21626;SDS011;10975;47.872;12.972;2024-02-28T01:50:58;45.13;;;27.48;;
21626;SDS011;10975;47.872;12.972;2024-02-28T01:53:25;41.70;;;25.63;;
21626;SDS011;10975;47.872;12.972;2024-02-28T01:55:53;41.28;;;26.33;;
21626;SDS011;10975;47.872;12.972;2024-02-28T01:58:20;35.85;;;23.70;;
21626;SDS011;10975;47.872;12.972;2024-02-28T02:00:47;36.30;;;24.17;;
21626;SDS011;10975;47.872;12.972;2024-02-28T02:03:15;38.83;;;24.75;;
21626;SDS011;10975;47.872;12.972;2024-02-28T02:05:42;35.10;;;24.27;;
21626;SDS011;10975;47.872;12.972;2024-02-28T02:08:10;38.05;;;25.08;;
21626;SDS011;10975;47.872;12.972;2024-02-28T02:10:37;36.92;;;24.77;;
21626;SDS011;10975;47.872;12.972;2024-02-28T02:13:04;38.58;;;24.80;;
21626;SDS011;10975;47.872;12.972;2024-02-28T02:15:32;37.13;;;23.98;;
21626;SDS011;10975;47.872;12.972;2024-02-28T02:17:59;36.50;;;24.85;;
21626;SDS011;10975;47.872;12.972;2024-02-28T02:20:26;31.58;;;21.92;;
21626;SDS011;10975;47.872;12.972;2024-02-28T02:22:56;36.28;;;23.92;;
21626;SDS011;10975;47.872;12.972;2024-02-28T02:25:23;32.20;;;21.67;;
21626;SDS011;10975;47.872;12.972;2024-02-28T02:27:50;32.85;;;21.58;;
21626;SDS011;10975;47.872;12.972;2024-02-28T02:30:16;32.35;;;22.88;;
21626;SDS011;10975;47.872;12.972;2024-02-28T02:32:43;38.92;;;24.50;;
21626;SDS011;10975;47.872;12.972;2024-02-28T02:35:10;35.47;;;24.83;;
21626;SDS011;10975;47.872;12.972;2024-02-28T02:37:37;32.65;;;23.98;;
21626;SDS011;10975;47.872;12.972;2024-02-28T02:40:04;34.85;;;23.90;;
21626;SDS011;10975;47.872;12.972;2024-02-28T02:42:31;37.40;;;24.02;;
21626;SDS011;10975;47.872;12.972;2024-02-28T02:44:58;33.22;;;22.33;;
21626;SDS011;10975;47.872;12.972;2024-02-28T02:47:25;39.03;;;25.15;;
21626;SDS011;10975;47.872;12.972;2024-02-28T02:49:52;34.55;;;23.80;;
21626;SDS011;10975;47.872;12.972;2024-02-28T02:52:18;38.20;;;24.50;;
21626;SDS011;10975;47.872;12.972;2024-02-28T02:54:45;39.97;;;25.92;;
21626;SDS011;10975;47.872;12.972;2024-02-28T02:57:12;49.33;;;29.42;;
21626;SDS011;10975;47.872;12.972;2024-02-28T02:59:39;46.35;;;29.70;;
21626;SDS011;10975;47.872;12.972;2024-02-28T03:02:06;45.65;;;27.63;;
21626;SDS011;10975;47.872;12.972;2024-02-28T03:04:32;39.63;;;25.45;;
21626;SDS011;10975;47.872;12.972;2024-02-28T03:06:59;36.88;;;25.67;;
21626;SDS011;10975;47.872;12.972;2024-02-28T03:09:26;37.78;;;23.92;;
21626;SDS011;10975;47.872;12.972;2024-02-28T03:11:53;37.95;;;24.42;;
21626;SDS011;10975;47.872;12.972;2024-02-28T03:14:19;41.22;;;27.10;;
21626;SDS011;10975;47.872;12.972;2024-02-28T03:16:48;37.58;;;23.80;;
21626;SDS011;10975;47.872;12.972;2024-02-28T03:19:16;44.25;;;25.90;;
21626;SDS011;10975;47.872;12.972;2024-02-28T03:21:43;41.10;;;25.98;;
21626;SDS011;10975;47.872;12.972;2024-02-28T03:24:09;33.42;;;23.73;;
21626;SDS011;10975;47.872;12.972;2024-02-28T03:26:36;39.50;;;24.65;;
21626;SDS011;10975;47.872;12.972;2024-02-28T03:29:03;40.25;;;25.45;;
21626;SDS011;10975;47.872;12.972;2024-02-28T03:31:30;37.05;;;24.40;;
21626;SDS011;10975;47.872;12.972;2024-02-28T03:33:57;38.00;;;25.55;;
21626;SDS011;10975;47.872;12.972;2024-02-28T03:36:24;34.03;;;24.48;;
21626;SDS011;10975;47.872;12.972;2024-02-28T03:38:51;37.25;;;24.60;;
21626;SDS011;10975;47.872;12.972;2024-02-28T03:41:17;40.00;;;25.13;;
21626;SDS011;10975;47.872;12.972;2024-02-28T03:43:44;35.50;;;24.55;;
21626;SDS011;10975;47.872;12.972;2024-02-28T03:46:11;39.53;;;25.08;;
21626;SDS011;10975;47.872;12.972;2024-02-28T03:48:38;36.47;;;25.35;;
21626;SDS011;10975;47.872;12.972;2024-02-28T03:51:05;35.90;;;24.40;;
21626;SDS011;10975;47.872;12.972;2024-02-28T03:53:31;35.38;;;24.23;;
21626;SDS011;10975;47.872;12.972;2024-02-28T03:55:58;41.83;;;26.23;;
21626;SDS011;10975;47.872;12.972;2024-02-28T03:58:25;39.45;;;25.88;;
21626;SDS011;10975;47.872;12.972;2024-02-28T04:00:52;42.08;;;25.77;;
21626;SDS011;10975;47.872;12.972;2024-02-28T04:03:19;34.55;;;24.13;;
21626;SDS011;10975;47.872;12.972;2024-02-28T04:05:46;38.45;;;25.45;;
21626;SDS011;10975;47.872;12.972;2024-02-28T04:08:12;39.78;;;26.50;;
21626;SDS011;10975;47.872;12.972;2024-02-28T04:10:39;42.50;;;26.40;;
21626;SDS011;10975;47.872;12.972;2024-02-28T04:13:06;35.42;;;23.17;;
21626;SDS011;10975;47.872;12.972;2024-02-28T04:15:33;38.67;;;26.13;;
21626;SDS011;10975;47.872;12.972;2024-02-28T04:18:00;35.88;;;24.05;;
21626;SDS011;10975;47.872;12.972;2024-02-28T04:20:27;34.38;;;24.60;;
21626;SDS011;10975;47.872;12.972;2024-02-28T04:22:53;38.70;;;26.02;;
21626;SDS011;10975;47.872;12.972;2024-02-28T04:25:20;36.85;;;24.58;;
21626;SDS011;10975;47.872;12.972;2024-02-28T04:27:47;34.55;;;24.70;;
21626;SDS011;10975;47.872;12.972;2024-02-28T04:30:14;41.20;;;26.05;;
21626;SDS011;10975;47.872;12.972;2024-02-28T04:32:41;38.20;;;25.65;;
21626;SDS011;10975;47.872;12.972;2024-02-28T04:35:08;34.90;;;24.27;;
21626;SDS011;10975;47.872;12.972;2024-02-28T04:37:36;46.17;;;26.92;;
21626;SDS011;10975;47.872;12.972;2024-02-28T04:40:03;48.35;;;27.88;;
21626;SDS011;10975;47.872;12.972;2024-02-28T04:42:31;36.13;;;25.80;;
21626;SDS011;10975;47.872;12.972;2024-02-28T04:44:57;43.50;;;27.70;;
21626;SDS011;10975;47.872;12.972;2024-02-28T04:47:24;45.85;;;28.15;;
21626;SDS011;10975;47.872;12.972;2024-02-28T04:50:01;43.45;;;27.30;;
21626;SDS011;10975;47.872;12.972;2024-02-28T04:52:31;43.85;;;27.83;;
21626;SDS011;10975;47.872;12.972;2024-02-28T04:54:59;37.38;;;25.83;;
21626;SDS011;10975;47.872;12.972;2024-02-28T04:57:26;42.85;;;28.00;;
21626;SDS011;10975;47.872;12.972;2024-02-28T04:59:53;43.20;;;27.17;;
21626;SDS011;10975;47.872;12.972;2024-02-28T05:02:20;46.65;;;29.10;;
21626;SDS011;10975;47.872;12.972;2024-02-28T05:04:52;41.50;;;27.23;;
21626;SDS011;10975;47.872;12.972;2024-02-28T05:07:18;43.08;;;26.90;;
21626;SDS011;10975;47.872;12.972;2024-02-28T05:09:45;43.72;;;27.00;;
21626;SDS011;10975;47.872;12.972;2024-02-28T05:12:12;42.92;;;28.52;;
21626;SDS011;10975;47.872;12.972;2024-02-28T05:14:39;46.70;;;27.38;;
21626;SDS011;10975;47.872;12.972;2024-02-28T05:17:06;43.63;;;27.50;;
21626;SDS011;10975;47.872;12.972;2024-02-28T05:19:33;45.35;;;28.40;;
21626;SDS011;10975;47.872;12.972;2024-02-28T05:21:59;46.22;;;28.30;;
21626;SDS011;10975;47.872;12.972;2024-02-28T05:24:27;43.13;;;28.58;;
21626;SDS011;10975;47.872;12.972;2024-02-28T05:26:54;41.40;;;27.35;;
21626;SDS011;10975;47.872;12.972;2024-02-28T05:29:21;44.47;;;26.92;;
21626;SDS011;10975;47.872;12.972;2024-02-28T05:31:48;40.95;;;25.55;;
21626;SDS011;10975;47.872;12.972;2024-02-28T05:34:14;41.03;;;26.02;;
21626;SDS011;10975;47.872;12.972;2024-02-28T05:36:42;40.97;;;26.40;;
21626;SDS011;10975;47.872;12.972;2024-02-28T05:39:09;42.53;;;27.10;;
21626;SDS011;10975;47.872;12.972;2024-02-28T05:41:36;39.78;;;24.95;;
21626;SDS011;10975;47.872;12.972;2024-02-28T05:44:03;43.42;;;27.60;;
21626;SDS011;10975;47.872;12.972;2024-02-28T05:46:30;42.60;;;27.45;;
21626;SDS011;10975;47.872;12.972;2024-02-28T05:48:56;43.22;;;26.38;;
21626;SDS011;10975;47.872;12.972;2024-02-28T05:51:24;42.38;;;27.20;;
21626;SDS011;10975;47.872;12.972;2024-02-28T05:53:50;41.85;;;26.42;;
21626;SDS011;10975;47.872;12.972;2024-02-28T05:56:17;39.30;;;26.88;;
21626;SDS011;10975;47.872;12.972;2024-02-28T05:58:46;41.15;;;25.55;;
21626;SDS011;10975;47.872;12.972;2024-02-28T06:01:17;40.58;;;26.23;;
21626;SDS011;10975;47.872;12.972;2024-02-28T06:03:45;39.13;;;26.83;;
21626;SDS011;10975;47.872;12.972;2024-02-28T06:06:13;38.20;;;25.48;;
21626;SDS011;10975;47.872;12.972;2024-02-28T06:08:40;39.13;;;25.73;;
21626;SDS011;10975;47.872;12.972;2024-02-28T06:11:09;39.90;;;25.33;;
21626;SDS011;10975;47.872;12.972;2024-02-28T06:13:36;44.83;;;27.92;;
21626;SDS011;10975;47.872;12.972;2024-02-28T06:16:03;43.17;;;27.88;;
21626;SDS011;10975;47.872;12.972;2024-02-28T06:18:30;37.42;;;25.50;;
21626;SDS011;10975;47.872;12.972;2024-02-28T06:21:00;48.28;;;28.20;;
21626;SDS011;10975;47.872;12.972;2024-02-28T06:23:27;38.45;;;25.60;;
21626;SDS011;10975;47.872;12.972;2024-02-28T06:25:56;43.05;;;27.73;;
21626;SDS011;10975;47.872;12.972;2024-02-28T06:28:23;44.60;;;29.20;;
21626;SDS011;10975;47.872;12.972;2024-02-28T06:30:50;40.20;;;25.85;;
21626;SDS011;10975;47.872;12.972;2024-02-28T06:33:17;44.53;;;27.42;;
21626;SDS011;10975;47.872;12.972;2024-02-28T06:35:45;38.35;;;25.83;;
21626;SDS011;10975;47.872;12.972;2024-02-28T06:38:12;48.85;;;28.27;;
21626;SDS011;10975;47.872;12.972;2024-02-28T06:40:39;42.55;;;26.83;;
21626;SDS011;10975;47.872;12.972;2024-02-28T06:43:07;39.47;;;24.67;;
21626;SDS011;10975;47.872;12.972;2024-02-28T06:45:34;40.22;;;26.95;;
21626;SDS011;10975;47.872;12.972;2024-02-28T06:48:03;41.67;;;28.23;;
21626;SDS011;10975;47.872;12.972;2024-02-28T06:50:30;42.17;;;25.88;;
21626;SDS011;10975;47.872;12.972;2024-02-28T06:52:57;47.75;;;30.10;;
21626;SDS011;10975;47.872;12.972;2024-02-28T06:55:24;40.92;;;28.08;;
21626;SDS011;10975;47.872;12.972;2024-02-28T06:57:51;48.17;;;31.80;;
21626;SDS011;10975;47.872;12.972;2024-02-28T07:00:18;45.50;;;33.08;;
21626;SDS011;10975;47.872;12.972;2024-02-28T07:02:46;38.42;;;27.83;;
21626;SDS011;10975;47.872;12.972;2024-02-28T07:05:12;46.55;;;28.45;;
21626;SDS011;10975;47.872;12.972;2024-02-28T07:07:39;40.70;;;26.58;;
21626;SDS011;10975;47.872;12.972;2024-02-28T07:10:06;36.30;;;24.77;;
21626;SDS011;10975;47.872;12.972;2024-02-28T07:12:33;37.63;;;25.70;;
21626;SDS011;10975;47.872;12.972;2024-02-28T07:15:00;39.55;;;25.83;;
21626;SDS011;10975;47.872;12.972;2024-02-28T07:17:27;38.70;;;25.23;;
21626;SDS011;10975;47.872;12.972;2024-02-28T07:19:54;38.55;;;25.52;;
21626;SDS011;10975;47.872;12.972;2024-02-28T07:22:21;44.67;;;27.98;;
21626;SDS011;10975;47.872;12.972;2024-02-28T07:24:47;35.05;;;25.13;;
21626;SDS011;10975;47.872;12.972;2024-02-28T07:27:14;36.42;;;24.17;;
21626;SDS011;10975;47.872;12.972;2024-02-28T07:29:42;36.45;;;23.98;;
21626;SDS011;10975;47.872;12.972;2024-02-28T07:32:10;35.08;;;23.98;;
21626;SDS011;10975;47.872;12.972;2024-02-28T07:34:37;34.10;;;25.02;;
21626;SDS011;10975;47.872;12.972;2024-02-28T07:37:04;30.88;;;22.45;;
21626;SDS011;10975;47.872;12.972;2024-02-28T07:39:31;33.10;;;23.35;;
21626;SDS011;10975;47.872;12.972;2024-02-28T07:41:58;34.10;;;23.88;;
21626;SDS011;10975;47.872;12.972;2024-02-28T07:44:25;34.42;;;22.50;;
21626;SDS011;10975;47.872;12.972;2024-02-28T07:46:52;33.75;;;21.90;;
21626;SDS011;10975;47.872;12.972;2024-02-28T07:49:19;32.67;;;22.73;;
21626;SDS011;10975;47.872;12.972;2024-02-28T07:51:45;38.50;;;27.30;;
21626;SDS011;10975;47.872;12.972;2024-02-28T07:54:12;42.72;;;27.73;;
21626;SDS011;10975;47.872;12.972;2024-02-28T07:56:39;38.38;;;24.80;;
21626;SDS011;10975;47.872;12.972;2024-02-28T07:59:06;38.65;;;25.00;;
21626;SDS011;10975;47.872;12.972;2024-02-28T08:01:33;34.28;;;25.15;;
21626;SDS011;10975;47.872;12.972;2024-02-28T08:04:00;33.33;;;23.63;;
21626;SDS011;10975;47.872;12.972;2024-02-28T08:06:28;33.35;;;23.88;;
21626;SDS011;10975;47.872;12.972;2024-02-28T08:08:55;36.95;;;25.33;;
21626;SDS011;10975;47.872;12.972;2024-02-28T08:11:22;32.60;;;22.70;;
21626;SDS011;10975;47.872;12.972;2024-02-28T08:13:51;31.27;;;22.52;;
21626;SDS011;10975;47.872;12.972;2024-02-28T08:16:18;42.30;;;24.33;;
21626;SDS011;10975;47.872;12.972;2024-02-28T08:18:45;31.00;;;22.05;;
21626;SDS011;10975;47.872;12.972;2024-02-28T08:21:12;28.52;;;20.33;;
21626;SDS011;10975;47.872;12.972;2024-02-28T08:23:39;33.28;;;21.85;;
21626;SDS011;10975;47.872;12.972;2024-02-28T08:26:05;34.75;;;22.27;;
21626;SDS011;10975;47.872;12.972;2024-02-28T08:28:33;30.17;;;21.45;;
21626;SDS011;10975;47.872;12.972;2024-02-28T08:30:59;26.95;;;19.48;;
21626;SDS011;10975;47.872;12.972;2024-02-28T08:33:27;26.77;;;20.08;;
21626;SDS011;10975;47.872;12.972;2024-02-28T08:35:54;28.17;;;20.63;;
21626;SDS011;10975;47.872;12.972;2024-02-28T08:38:20;29.17;;;20.52;;
21626;SDS011;10975;47.872;12.972;2024-02-28T08:40:47;24.98;;;18.48;;
21626;SDS011;10975;47.872;12.972;2024-02-28T08:43:14;29.52;;;19.13;;
21626;SDS011;10975;47.872;12.972;2024-02-28T08:45:41;26.90;;;19.35;;
21626;SDS011;10975;47.872;12.972;2024-02-28T08:48:08;26.95;;;18.80;;
21626;SDS011;10975;47.872;12.972;2024-02-28T08:50:35;30.58;;;20.35;;
21626;SDS011;10975;47.872;12.972;2024-02-28T08:53:02;24.02;;;19.25;;
21626;SDS011;10975;47.872;12.972;2024-02-28T08:55:29;25.70;;;18.25;;
21626;SDS011;10975;47.872;12.972;2024-02-28T08:57:57;22.15;;;18.10;;
21626;SDS011;10975;47.872;12.972;2024-02-28T09:00:24;26.95;;;17.98;;
21626;SDS011;10975;47.872;12.972;2024-02-28T09:02:52;30.08;;;19.33;;
21626;SDS011;10975;47.872;12.972;2024-02-28T09:05:18;27.08;;;18.45;;
21626;SDS011;10975;47.872;12.972;2024-02-28T09:07:45;27.42;;;18.83;;
21626;SDS011;10975;47.872;12.972;2024-02-28T09:10:17;24.80;;;18.83;;
21626;SDS011;10975;47.872;12.972;2024-02-28T09:12:51;29.73;;;19.27;;
21626;SDS011;10975;47.872;12.972;2024-02-28T09:15:18;32.75;;;20.20;;
21626;SDS011;10975;47.872;12.972;2024-02-28T09:17:45;29.65;;;20.65;;
21626;SDS011;10975;47.872;12.972;2024-02-28T09:20:12;29.48;;;19.90;;
21626;SDS011;10975;47.872;12.972;2024-02-28T09:22:39;28.45;;;19.73;;
21626;SDS011;10975;47.872;12.972;2024-02-28T09:25:06;25.35;;;18.90;;
21626;SDS011;10975;47.872;12.972;2024-02-28T09:27:35;26.75;;;19.83;;
21626;SDS011;10975;47.872;12.972;2024-02-28T09:30:03;31.65;;;18.65;;
21626;SDS011;10975;47.872;12.972;2024-02-28T09:32:30;25.23;;;19.10;;
21626;SDS011;10975;47.872;12.972;2024-02-28T09:34:57;29.05;;;19.58;;
21626;SDS011;10975;47.872;12.972;2024-02-28T09:37:24;25.30;;;17.65;;
21626;SDS011;10975;47.872;12.972;2024-02-28T09:39:51;24.70;;;19.27;;
21626;SDS011;10975;47.872;12.972;2024-02-28T09:42:18;25.88;;;18.67;;
21626;SDS011;10975;47.872;12.972;2024-02-28T09:44:46;27.02;;;19.13;;
21626;SDS011;10975;47.872;12.972;2024-02-28T09:47:14;25.92;;;19.23;;
21626;SDS011;10975;47.872;12.972;2024-02-28T09:49:41;27.27;;;19.58;;
21626;SDS011;10975;47.872;12.972;2024-02-28T09:52:09;26.38;;;18.92;;
21626;SDS011;10975;47.872;12.972;2024-02-28T09:54:36;27.63;;;19.80;;
21626;SDS011;10975;47.872;12.972;2024-02-28T09:57:03;26.08;;;18.90;;
21626;SDS011;10975;47.872;12.972;2024-02-28T09:59:30;28.02;;;19.05;;
21626;SDS011;10975;47.872;12.972;2024-02-28T10:02:17;25.15;;;19.35;;
21626;SDS011;10975;47.872;12.972;2024-02-28T10:04:46;27.17;;;19.58;;
21626;SDS011;10975;47.872;12.972;2024-02-28T10:07:13;22.67;;;18.15;;
21626;SDS011;10975;47.872;12.972;2024-02-28T10:09:41;29.63;;;20.65;;
21626;SDS011;10975;47.872;12.972;2024-02-28T10:12:08;27.50;;;19.98;;
21626;SDS011;10975;47.872;12.972;2024-02-28T10:14:35;28.88;;;21.65;;
21626;SDS011;10975;47.872;12.972;2024-02-28T10:17:02;27.60;;;20.92;;
21626;SDS011;10975;47.872;12.972;2024-02-28T10:19:29;36.28;;;23.77;;
21626;SDS011;10975;47.872;12.972;2024-02-28T10:21:56;35.25;;;22.80;;
21626;SDS011;10975;47.872;12.972;2024-02-28T10:24:26;26.88;;;21.30;;
21626;SDS011;10975;47.872;12.972;2024-02-28T10:26:53;33.22;;;21.88;;
21626;SDS011;10975;47.872;12.972;2024-02-28T10:29:23;25.60;;;20.67;;
21626;SDS011;10975;47.872;12.972;2024-02-28T10:31:57;28.25;;;21.27;;
21626;SDS011;10975;47.872;12.972;2024-02-28T10:34:24;28.38;;;20.52;;
21626;SDS011;10975;47.872;12.972;2024-02-28T10:36:51;29.40;;;21.08;;
21626;SDS011;10975;47.872;12.972;2024-02-28T10:39:18;31.23;;;25.50;;
21626;SDS011;10975;47.872;12.972;2024-02-28T10:41:47;29.02;;;21.52;;
21626;SDS011;10975;47.872;12.972;2024-02-28T10:44:16;28.48;;;21.88;;
21626;SDS011;10975;47.872;12.972;2024-02-28T10:46:44;30.67;;;21.17;;
21626;SDS011;10975;47.872;12.972;2024-02-28T10:49:15;31.65;;;21.17;;
21626;SDS011;10975;47.872;12.972;2024-02-28T10:51:42;37.50;;;28.58;;
21626;SDS011;10975;47.872;12.972;2024-02-28T10:54:13;39.83;;;26.70;;
21626;SDS011;10975;47.872;12.972;2024-02-28T10:56:42;34.35;;;24.10;;
21626;SDS011;10975;47.872;12.972;2024-02-28T10:59:10;36.15;;;23.73;;
21626;SDS011;10975;47.872;12.972;2024-02-28T11:01:40;38.42;;;24.38;;
21626;SDS011;10975;47.872;12.972;2024-02-28T11:04:10;43.42;;;26.13;;
21626;SDS011;10975;47.872;12.972;2024-02-28T11:06:47;40.60;;;26.48;;
21626;SDS011;10975;47.872;12.972;2024-02-28T11:09:22;37.13;;;24.10;;
21626;SDS011;10975;47.872;12.972;2024-02-28T11:11:52;44.25;;;27.42;;
21626;SDS011;10975;47.872;12.972;2024-02-28T11:14:19;50.15;;;26.92;;
21626;SDS011;10975;47.872;12.972;2024-02-28T11:16:59;40.53;;;26.85;;
21626;SDS011;10975;47.872;12.972;2024-02-28T11:19:29;39.30;;;27.83;;
21626;SDS011;10975;47.872;12.972;2024-02-28T11:22:01;44.90;;;27.15;;
21626;SDS011;10975;47.872;12.972;2024-02-28T11:24:30;50.60;;;28.00;;
21626;SDS011;10975;47.872;12.972;2024-02-28T11:27:00;44.13;;;27.40;;
21626;SDS011;10975;47.872;12.972;2024-02-28T11:29:29;48.22;;;29.05;;
21626;SDS011;10975;47.872;12.972;2024-02-28T11:31:56;48.78;;;30.08;;
21626;SDS011;10975;47.872;12.972;2024-02-28T11:34:23;44.80;;;29.88;;
21626;SDS011;10975;47.872;12.972;2024-02-28T11:36:50;49.25;;;29.40;;
21626;SDS011;10975;47.872;12.972;2024-02-28T11:39:17;52.42;;;30.30;;
21626;SDS011;10975;47.872;12.972;2024-02-28T11:41:46;51.30;;;29.63;;
21626;SDS011;10975;47.872;12.972;2024-02-28T11:44:14;47.25;;;30.20;;
21626;SDS011;10975;47.872;12.972;2024-02-28T11:46:43;54.25;;;30.80;;
21626;SDS011;10975;47.872;12.972;2024-02-28T11:49:11;51.08;;;31.60;;
21626;SDS011;10975;47.872;12.972;2024-02-28T11:51:41;49.80;;;30.33;;
21626;SDS011;10975;47.872;12.972;2024-02-28T11:54:09;51.50;;;30.23;;
21626;SDS011;10975;47.872;12.972;2024-02-28T11:56:37;49.13;;;30.25;;
21626;SDS011;10975;47.872;12.972;2024-02-28T11:59:05;52.47;;;31.23;;
21626;SDS011;10975;47.872;12.972;2024-02-28T12:01:33;53.53;;;30.35;;
21626;SDS011;10975;47.872;12.972;2024-02-28T12:04:02;48.70;;;29.70;;
21626;SDS011;10975;47.872;12.972;2024-02-28T12:06:31;58.55;;;31.67;;
21626;SDS011;10975;47.872;12.972;2024-02-28T12:11:30;52.65;;;30.52;;
21626;SDS011;10975;47.872;12.972;2024-02-28T12:13:57;50.60;;;30.48;;
21626;SDS011;10975;47.872;12.972;2024-02-28T12:16:26;53.45;;;31.17;;
21626;SDS011;10975;47.872;12.972;2024-02-28T12:18:53;50.70;;;29.48;;
21626;SDS011;10975;47.872;12.972;2024-02-28T12:21:20;56.00;;;29.80;;
21626;SDS011;10975;47.872;12.972;2024-02-28T12:23:48;56.92;;;31.55;;
21626;SDS011;10975;47.872;12.972;2024-02-28T12:26:19;56.60;;;31.10;;
21626;SDS011;10975;47.872;12.972;2024-02-28T12:28:46;49.92;;;30.20;;
21626;SDS011;10975;47.872;12.972;2024-02-28T12:31:13;56.95;;;31.70;;
21626;SDS011;10975;47.872;12.972;2024-02-28T12:33:40;52.88;;;30.40;;
21626;SDS011;10975;47.872;12.972;2024-02-28T12:36:08;57.28;;;32.35;;
21626;SDS011;10975;47.872;12.972;2024-02-28T12:38:35;56.15;;;32.13;;
21626;SDS011;10975;47.872;12.972;2024-02-28T12:41:02;58.25;;;31.55;;
21626;SDS011;10975;47.872;12.972;2024-02-28T12:43:30;55.10;;;32.17;;
21626;SDS011;10975;47.872;12.972;2024-02-28T12:45:58;56.92;;;32.53;;
21626;SDS011;10975;47.872;12.972;2024-02-28T12:48:26;54.72;;;30.88;;
21626;SDS011;10975;47.872;12.972;2024-02-28T12:50:53;53.83;;;31.30;;
21626;SDS011;10975;47.872;12.972;2024-02-28T12:53:20;59.85;;;30.83;;
21626;SDS011;10975;47.872;12.972;2024-02-28T12:55:46;53.10;;;31.15;;
21626;SDS011;10975;47.872;12.972;2024-02-28T12:58:13;51.33;;;30.77;;
21626;SDS011;10975;47.872;12.972;2024-02-28T13:00:40;55.20;;;30.77;;
21626;SDS011;10975;47.872;12.972;2024-02-28T13:03:07;51.45;;;30.88;;
21626;SDS011;10975;47.872;12.972;2024-02-28T13:05:35;58.28;;;31.92;;
21626;SDS011;10975;47.872;12.972;2024-02-28T13:08:03;57.20;;;31.63;;
21626;SDS011;10975;47.872;12.972;2024-02-28T13:10:30;54.67;;;30.90;;
21626;SDS011;10975;47.872;12.972;2024-02-28T13:13:00;54.72;;;30.63;;
21626;SDS011;10975;47.872;12.972;2024-02-28T13:15:27;51.28;;;29.52;;
21626;SDS011;10975;47.872;12.972;2024-02-28T13:17:54;52.15;;;30.65;;
21626;SDS011;10975;47.872;12.972;2024-02-28T13:20:21;58.78;;;30.58;;
21626;SDS011;10975;47.872;12.972;2024-02-28T13:22:48;51.45;;;29.60;;
21626;SDS011;10975;47.872;12.972;2024-02-28T13:25:16;56.47;;;31.80;;
21626;SDS011;10975;47.872;12.972;2024-02-28T13:27:45;59.72;;;30.58;;
21626;SDS011;10975;47.872;12.972;2024-02-28T13:30:13;60.03;;;32.13;;
21626;SDS011;10975;47.872;12.972;2024-02-28T13:32:41;54.65;;;31.60;;
21626;SDS011;10975;47.872;12.972;2024-02-28T13:35:08;54.58;;;30.70;;
21626;SDS011;10975;47.872;12.972;2024-02-28T13:37:36;55.83;;;31.33;;
21626;SDS011;10975;47.872;12.972;2024-02-28T13:40:07;58.20;;;31.40;;
21626;SDS011;10975;47.872;12.972;2024-02-28T13:42:36;53.60;;;30.60;;
21626;SDS011;10975;47.872;12.972;2024-02-28T13:45:04;57.40;;;31.45;;
21626;SDS011;10975;47.872;12.972;2024-02-28T13:47:35;56.83;;;31.97;;
21626;SDS011;10975;47.872;12.972;2024-02-28T13:50:02;54.30;;;30.42;;
21626;SDS011;10975;47.872;12.972;2024-02-28T13:52:29;60.05;;;31.45;;
21626;SDS011;10975;47.872;12.972;2024-02-28T13:54:56;60.28;;;33.55;;
21626;SDS011;10975;47.872;12.972;2024-02-28T13:57:23;59.58;;;32.20;;
21626;SDS011;10975;47.872;12.972;2024-02-28T13:59:49;54.72;;;32.25;;
21626;SDS011;10975;47.872;12.972;2024-02-28T14:02:20;58.72;;;31.48;;
21626;SDS011;10975;47.872;12.972;2024-02-28T14:04:48;62.35;;;32.97;;
21626;SDS011;10975;47.872;12.972;2024-02-28T14:07:15;62.10;;;33.25;;
21626;SDS011;10975;47.872;12.972;2024-02-28T14:09:43;61.88;;;32.92;;
21626;SDS011;10975;47.872;12.972;2024-02-28T14:12:11;57.70;;;32.85;;